Tropical Cyclones
[Index]
Main Index Home Page Stock Weather Photos Extreme Storms Discussion Storm News and Storm Chasing Reports Tropical Cyclones / Hurricanes / Typhoons Weather Data and Links Wild Fires / Bushfires Weather Observation Techniques Weather Picture Catalogue Tornado Pictures and Reports Stock Video Footage and DVDs for sale
Season 1995-1996 Tropical Cyclone ATU Track Map
Season 1995-1996 Summaries: [BoM-AU] [JTWC-AU] [JTWC-SIO] [JTWC-SPAC] [JTWC-SH]
<<- Previous TC | JTWC 1995-1996 Season | Next TC ->>

click for intensity scale information  Lat/long Grid: Show Hide

 Date Labels: Show Hide

Joint Typhoon Warning Centre Cyclone Data

Name: ATU

04 Mar 1996 06:00 UTC to 14 Mar 1996 00:00 UTC

    date/time    lat    long     hPa   cat  kts
1996-03-04 06   12.0   155.0                  20          
1996-03-04 12   12.1   155.1                  20          
1996-03-04 18   12.2   155.2                  20          
1996-03-05 00   12.3   155.3                  20          
1996-03-05 06   12.4   155.4                  20          
1996-03-05 12   12.5   155.5                  20          
1996-03-05 18   12.6   155.6                  20          
1996-03-06 00   12.8   155.8                  20          
1996-03-06 06   13.0   156.0                  20          
1996-03-06 12   13.3   156.3                  20          
1996-03-06 18   13.5   156.5                  20          
1996-03-07 00   13.7   156.7                  20          
1996-03-07 06   13.9   156.9                  20          
1996-03-07 12   14.1   157.2                  20          
1996-03-07 18   14.2   157.4                  20          
1996-03-08 00   14.3   157.6                  20          
1996-03-08 06   14.4   157.8                  20          
1996-03-08 12   14.5   158.1                  20          
1996-03-08 18   14.6   158.3                  20          
1996-03-09 00   14.7   158.6                  20          
1996-03-09 06   14.9   158.9                  20          
1996-03-09 12   15.2   159.4                  20          
1996-03-09 18   16.0   160.6                  25          
1996-03-10 00   16.9   161.8                  25          
1996-03-10 06   17.9   163.0                  25          
1996-03-10 12   18.8   164.4                  30          
1996-03-10 18   19.7   166.1                  35          
1996-03-11 00   20.8   167.7            1     40          
1996-03-11 06   21.3   168.9            1     40          
1996-03-11 12   21.5   169.8            1     40          
1996-03-11 18   21.7   170.4            1     45          
1996-03-12 00   21.9   170.9            1     50          
1996-03-12 06   22.0   171.3            2     55          
1996-03-12 12   22.1   171.7            2     55          
1996-03-12 18   22.6   171.7            2     55          
1996-03-13 00   23.1   171.5            1     50          
1996-03-13 06   23.8   171.6            1     45          
1996-03-13 12   24.4   171.9                  35          
1996-03-13 18   25.0   172.6                  30          
1996-03-14 00   25.5   173.3                  30          
Winds are 1-min average.

Tropical cyclone tracks developed by Michael Bath using data from the Joint Typhoon Warning Centre Best Tracks and Google Maps.


[Australian Severe Weather index] [Copyright Notice] [Email Contacts] [Search This Site] [Privacy Policy]
Document: tropical_cyclone_atu.htm Updated: 18 September 2016